Terminal Aerodrome Forecast
Issued by NWS

Home | Current Version | Previous Version | Text Only | Print | Product List | Glossary On
Versions: 1 2 3 4 5 6 7 8 9 10 11 12 13 14 15 16
000
FTUS41 KPBZ 311100
TAFBVI
TAF
KBVI 311120Z 3112/0112 VRB03KT P6SM OVC050
     FM311800 21004KT 4SM -RA OVC025
     FM010200 26004KT 2SM -RA BR BKN015 OVC025=

USA.gov is the U.S. government's official web portal to all federal, state and local government web resources and services.